Lac Ste. Marie, Canada
Current Conditions -  °F | °C
As of 7:23 PM on Monday 24 Nov 2014 (Local Time) from CYND Reporting Station
Broken Clouds Broken Clouds  
Wind Chill: 57°   Ceiling: 6000
Heat Index: 57°   Visibility: 15mi
Dew Point: 50°   Wind: 16mph
Humidity: 77%   Direction: 220°SW
Pressure: 29.28"   Gusts: 30mph
Location:  45.97°N, 75.93°W
Report Text: CYND 250023Z 22014G26KT 15SM FEW040 BKN060 14/10 A2928 RMK SC2SC3 SLP915 DENSITY ALT 800FT
Loading
Personal Weather Stations






























Interactive Weather Map New forecast layout! Learn more

10-Day Weather Forecast

Advertisements
Track Severe Weather on mobile